Moss, Tennessee
Current Conditions -  °F | °C
As of 6:55 PM on Monday 26 Jan 2015 (Local Time) from KGLW Reporting Station
Light Snow Light Snow  
Wind Chill: 30°   Ceiling: 1000
Heat Index: 30°   Visibility: 2mi
Dew Point: 28°   Wind: 3mph
Humidity: 92%   Direction: 300°WNW
Pressure: 29.98"   Gusts: NA
Location:  36.59°N, 85.62°W
Report Text: KGLW 270055Z AUTO 30003KT 2SM -SN BKN010 OVC017 M01/M02 A2998 RMK AO2 T10121024
Loading
Personal Weather Stations






























Interactive Weather Map New forecast layout! Learn more

10-Day Weather Forecast

Advertisements
Track Severe Weather on mobile